sensor_id;sensor_type;location;lat;lon;timestamp;temperature;humidity
62991;DHT22;49084;48.204;16.202;2023-06-22T00:01:28;18.60;99.90
62991;DHT22;49084;48.204;16.202;2023-06-22T00:03:53;18.60;99.90
62991;DHT22;49084;48.204;16.202;2023-06-22T00:06:19;18.60;99.90
62991;DHT22;49084;48.204;16.202;2023-06-22T00:08:45;18.60;99.90
62991;DHT22;49084;48.204;16.202;2023-06-22T00:11:10;18.50;99.90
62991;DHT22;49084;48.204;16.202;2023-06-22T00:13:37;18.50;99.90
62991;DHT22;49084;48.204;16.202;2023-06-22T00:16:02;18.50;99.90
62991;DHT22;49084;48.204;16.202;2023-06-22T00:18:28;18.40;99.90
62991;DHT22;49084;48.204;16.202;2023-06-22T00:20:56;18.40;99.90
62991;DHT22;49084;48.204;16.202;2023-06-22T00:23:25;18.40;99.90
62991;DHT22;49084;48.204;16.202;2023-06-22T00:25:51;18.40;99.90
62991;DHT22;49084;48.204;16.202;2023-06-22T00:28:17;18.40;99.90
62991;DHT22;49084;48.204;16.202;2023-06-22T00:30:42;18.30;99.90
62991;DHT22;49084;48.204;16.202;2023-06-22T00:33:08;18.30;99.90
62991;DHT22;49084;48.204;16.202;2023-06-22T00:35:34;18.30;99.90
62991;DHT22;49084;48.204;16.202;2023-06-22T00:38:00;18.30;99.90
62991;DHT22;49084;48.204;16.202;2023-06-22T00:40:30;18.20;99.90
62991;DHT22;49084;48.204;16.202;2023-06-22T00:42:57;18.20;99.90
62991;DHT22;49084;48.204;16.202;2023-06-22T00:45:23;18.20;99.90
62991;DHT22;49084;48.204;16.202;2023-06-22T00:47:53;18.10;99.90
62991;DHT22;49084;48.204;16.202;2023-06-22T00:50:22;18.10;99.90
62991;DHT22;49084;48.204;16.202;2023-06-22T00:52:57;18.10;99.90
62991;DHT22;49084;48.204;16.202;2023-06-22T00:55:24;18.10;99.90
62991;DHT22;49084;48.204;16.202;2023-06-22T00:57:51;18.10;99.90
62991;DHT22;49084;48.204;16.202;2023-06-22T01:00:22;18.10;99.90
62991;DHT22;49084;48.204;16.202;2023-06-22T01:02:50;18.10;99.90
62991;DHT22;49084;48.204;16.202;2023-06-22T01:05:18;18.10;99.90
62991;DHT22;49084;48.204;16.202;2023-06-22T01:12:55;18.10;99.90
62991;DHT22;49084;48.204;16.202;2023-06-22T01:16:10;18.10;99.90
62991;DHT22;49084;48.204;16.202;2023-06-22T01:18:30;18.00;99.90
62991;DHT22;49084;48.204;16.202;2023-06-22T01:20:56;18.00;99.90
62991;DHT22;49084;48.204;16.202;2023-06-22T01:26:25;18.00;99.90
62991;DHT22;49084;48.204;16.202;2023-06-22T01:28:57;17.90;99.90
62991;DHT22;49084;48.204;16.202;2023-06-22T01:31:26;17.90;99.90
62991;DHT22;49084;48.204;16.202;2023-06-22T01:33:59;17.90;99.90
62991;DHT22;49084;48.204;16.202;2023-06-22T01:36:26;17.80;99.90
62991;DHT22;49084;48.204;16.202;2023-06-22T01:38:53;17.80;99.90
62991;DHT22;49084;48.204;16.202;2023-06-22T01:41:20;17.80;99.90
62991;DHT22;49084;48.204;16.202;2023-06-22T01:43:47;17.80;99.90
62991;DHT22;49084;48.204;16.202;2023-06-22T01:46:14;17.80;99.90
62991;DHT22;49084;48.204;16.202;2023-06-22T01:48:40;17.70;99.90
62991;DHT22;49084;48.204;16.202;2023-06-22T01:51:06;17.70;99.90
62991;DHT22;49084;48.204;16.202;2023-06-22T01:53:32;17.70;99.90
62991;DHT22;49084;48.204;16.202;2023-06-22T01:55:57;17.70;99.90
62991;DHT22;49084;48.204;16.202;2023-06-22T01:58:26;17.70;99.90
62991;DHT22;49084;48.204;16.202;2023-06-22T02:01:13;17.70;99.90
62991;DHT22;49084;48.204;16.202;2023-06-22T02:03:52;17.60;99.90
62991;DHT22;49084;48.204;16.202;2023-06-22T02:06:27;17.60;99.90
62991;DHT22;49084;48.204;16.202;2023-06-22T02:08:58;17.60;99.90
62991;DHT22;49084;48.204;16.202;2023-06-22T02:11:26;17.60;99.90
62991;DHT22;49084;48.204;16.202;2023-06-22T02:13:54;17.50;99.90
62991;DHT22;49084;48.204;16.202;2023-06-22T02:16:20;17.50;99.90
62991;DHT22;49084;48.204;16.202;2023-06-22T02:18:51;17.50;99.90
62991;DHT22;49084;48.204;16.202;2023-06-22T02:21:20;17.50;99.90
62991;DHT22;49084;48.204;16.202;2023-06-22T02:23:46;17.40;99.90
62991;DHT22;49084;48.204;16.202;2023-06-22T02:26:13;17.40;99.90
62991;DHT22;49084;48.204;16.202;2023-06-22T02:28:38;17.40;99.90
62991;DHT22;49084;48.204;16.202;2023-06-22T02:31:04;17.40;99.90
62991;DHT22;49084;48.204;16.202;2023-06-22T02:33:30;17.40;99.90
62991;DHT22;49084;48.204;16.202;2023-06-22T02:35:55;17.40;99.90
62991;DHT22;49084;48.204;16.202;2023-06-22T02:38:21;17.40;99.90
62991;DHT22;49084;48.204;16.202;2023-06-22T02:40:50;17.40;99.90
62991;DHT22;49084;48.204;16.202;2023-06-22T02:43:15;17.40;99.90
62991;DHT22;49084;48.204;16.202;2023-06-22T02:45:41;17.30;99.90
62991;DHT22;49084;48.204;16.202;2023-06-22T02:48:07;17.30;99.90
62991;DHT22;49084;48.204;16.202;2023-06-22T02:50:32;17.30;99.90
62991;DHT22;49084;48.204;16.202;2023-06-22T02:52:58;17.30;99.90
62991;DHT22;49084;48.204;16.202;2023-06-22T02:55:23;17.30;99.90
62991;DHT22;49084;48.204;16.202;2023-06-22T02:57:49;17.30;99.90
62991;DHT22;49084;48.204;16.202;2023-06-22T03:00:19;17.30;99.90
62991;DHT22;49084;48.204;16.202;2023-06-22T03:02:48;17.30;99.90
62991;DHT22;49084;48.204;16.202;2023-06-22T03:05:15;17.30;99.90
62991;DHT22;49084;48.204;16.202;2023-06-22T03:07:43;17.30;99.90
62991;DHT22;49084;48.204;16.202;2023-06-22T03:10:10;17.20;99.90
62991;DHT22;49084;48.204;16.202;2023-06-22T03:12:40;17.30;99.90
62991;DHT22;49084;48.204;16.202;2023-06-22T03:15:07;17.30;99.90
62991;DHT22;49084;48.204;16.202;2023-06-22T03:17:34;17.30;99.90
62991;DHT22;49084;48.204;16.202;2023-06-22T03:20:00;17.20;99.90
62991;DHT22;49084;48.204;16.202;2023-06-22T03:22:26;17.20;99.90
62991;DHT22;49084;48.204;16.202;2023-06-22T03:24:52;17.20;99.90
62991;DHT22;49084;48.204;16.202;2023-06-22T03:27:17;17.20;99.90
62991;DHT22;49084;48.204;16.202;2023-06-22T03:29:44;17.20;99.90
62991;DHT22;49084;48.204;16.202;2023-06-22T03:32:10;17.20;99.90
62991;DHT22;49084;48.204;16.202;2023-06-22T03:34:35;17.20;99.90
62991;DHT22;49084;48.204;16.202;2023-06-22T03:37:01;17.20;99.90
62991;DHT22;49084;48.204;16.202;2023-06-22T03:39:27;17.20;99.90
62991;DHT22;49084;48.204;16.202;2023-06-22T03:41:52;17.20;99.90
62991;DHT22;49084;48.204;16.202;2023-06-22T03:44:18;17.20;99.90
62991;DHT22;49084;48.204;16.202;2023-06-22T03:46:44;17.30;99.90
62991;DHT22;49084;48.204;16.202;2023-06-22T03:49:09;17.30;99.90
62991;DHT22;49084;48.204;16.202;2023-06-22T03:51:35;17.30;99.90
62991;DHT22;49084;48.204;16.202;2023-06-22T03:54:01;17.30;99.90
62991;DHT22;49084;48.204;16.202;2023-06-22T03:56:26;17.30;99.90
62991;DHT22;49084;48.204;16.202;2023-06-22T03:58:52;17.30;99.90
62991;DHT22;49084;48.204;16.202;2023-06-22T04:01:18;17.40;99.90
62991;DHT22;49084;48.204;16.202;2023-06-22T04:03:43;17.40;99.90
62991;DHT22;49084;48.204;16.202;2023-06-22T04:06:09;17.50;99.90
62991;DHT22;49084;48.204;16.202;2023-06-22T04:08:35;17.50;99.90
62991;DHT22;49084;48.204;16.202;2023-06-22T04:11:00;17.50;99.90
62991;DHT22;49084;48.204;16.202;2023-06-22T04:13:26;17.60;99.90
62991;DHT22;49084;48.204;16.202;2023-06-22T04:15:51;17.60;99.90
62991;DHT22;49084;48.204;16.202;2023-06-22T04:18:17;17.70;99.90
62991;DHT22;49084;48.204;16.202;2023-06-22T04:20:43;17.80;99.90
62991;DHT22;49084;48.204;16.202;2023-06-22T04:23:12;17.80;99.90
62991;DHT22;49084;48.204;16.202;2023-06-22T04:25:38;17.80;99.90
62991;DHT22;49084;48.204;16.202;2023-06-22T04:28:04;17.90;99.90
62991;DHT22;49084;48.204;16.202;2023-06-22T04:30:32;18.00;99.90
62991;DHT22;49084;48.204;16.202;2023-06-22T04:32:58;18.00;99.90
62991;DHT22;49084;48.204;16.202;2023-06-22T04:35:24;18.10;99.90
62991;DHT22;49084;48.204;16.202;2023-06-22T04:37:52;18.20;99.90
62991;DHT22;49084;48.204;16.202;2023-06-22T04:40:21;18.20;99.90
62991;DHT22;49084;48.204;16.202;2023-06-22T04:42:47;18.30;99.90
62991;DHT22;49084;48.204;16.202;2023-06-22T04:45:17;18.40;99.90
62991;DHT22;49084;48.204;16.202;2023-06-22T04:47:43;18.50;99.90
62991;DHT22;49084;48.204;16.202;2023-06-22T04:50:13;18.50;99.90
62991;DHT22;49084;48.204;16.202;2023-06-22T04:52:39;18.50;99.90
62991;DHT22;49084;48.204;16.202;2023-06-22T04:55:06;18.60;99.90
62991;DHT22;49084;48.204;16.202;2023-06-22T04:57:31;18.60;99.90
62991;DHT22;49084;48.204;16.202;2023-06-22T05:00:01;18.70;99.90
62991;DHT22;49084;48.204;16.202;2023-06-22T05:02:41;18.60;99.90
62991;DHT22;49084;48.204;16.202;2023-06-22T05:05:08;18.80;99.90
62991;DHT22;49084;48.204;16.202;2023-06-22T05:07:34;18.80;99.90
62991;DHT22;49084;48.204;16.202;2023-06-22T05:10:03;18.90;99.90
62991;DHT22;49084;48.204;16.202;2023-06-22T05:12:30;19.00;99.90
62991;DHT22;49084;48.204;16.202;2023-06-22T05:14:56;19.10;99.90
62991;DHT22;49084;48.204;16.202;2023-06-22T05:17:22;19.10;99.90
62991;DHT22;49084;48.204;16.202;2023-06-22T05:19:48;19.20;99.90
62991;DHT22;49084;48.204;16.202;2023-06-22T05:22:17;19.30;99.90
62991;DHT22;49084;48.204;16.202;2023-06-22T05:24:42;19.40;99.90
62991;DHT22;49084;48.204;16.202;2023-06-22T05:27:09;19.50;99.90
62991;DHT22;49084;48.204;16.202;2023-06-22T05:29:36;19.60;99.90
62991;DHT22;49084;48.204;16.202;2023-06-22T05:32:02;19.70;99.90
62991;DHT22;49084;48.204;16.202;2023-06-22T05:34:28;19.70;99.90
62991;DHT22;49084;48.204;16.202;2023-06-22T05:36:54;19.80;99.90
62991;DHT22;49084;48.204;16.202;2023-06-22T05:39:19;19.90;99.90
62991;DHT22;49084;48.204;16.202;2023-06-22T05:41:46;18.70;99.90
62991;DHT22;49084;48.204;16.202;2023-06-22T05:44:11;20.10;99.90
62991;DHT22;49084;48.204;16.202;2023-06-22T05:46:40;20.30;99.90
62991;DHT22;49084;48.204;16.202;2023-06-22T05:49:10;20.40;99.90
62991;DHT22;49084;48.204;16.202;2023-06-22T05:51:35;20.60;99.90
62991;DHT22;49084;48.204;16.202;2023-06-22T05:54:01;20.70;99.90
62991;DHT22;49084;48.204;16.202;2023-06-22T05:56:27;20.80;99.90
62991;DHT22;49084;48.204;16.202;2023-06-22T05:58:53;21.00;99.90
62991;DHT22;49084;48.204;16.202;2023-06-22T06:01:19;21.10;99.90
62991;DHT22;49084;48.204;16.202;2023-06-22T06:03:44;21.30;99.90
62991;DHT22;49084;48.204;16.202;2023-06-22T06:06:10;21.50;99.90
62991;DHT22;49084;48.204;16.202;2023-06-22T06:08:37;21.60;99.90
62991;DHT22;49084;48.204;16.202;2023-06-22T06:11:02;21.80;99.90
62991;DHT22;49084;48.204;16.202;2023-06-22T06:13:28;21.90;99.90
62991;DHT22;49084;48.204;16.202;2023-06-22T06:15:54;22.20;99.90
62991;DHT22;49084;48.204;16.202;2023-06-22T06:18:22;22.40;99.90
62991;DHT22;49084;48.204;16.202;2023-06-22T06:20:48;22.60;99.90
62991;DHT22;49084;48.204;16.202;2023-06-22T06:23:14;23.00;99.90
62991;DHT22;49084;48.204;16.202;2023-06-22T06:25:40;23.50;99.90
62991;DHT22;49084;48.204;16.202;2023-06-22T06:28:05;24.00;99.90
62991;DHT22;49084;48.204;16.202;2023-06-22T06:30:31;24.40;99.90
62991;DHT22;49084;48.204;16.202;2023-06-22T06:32:57;24.90;99.90
62991;DHT22;49084;48.204;16.202;2023-06-22T06:35:23;25.20;99.90
62991;DHT22;49084;48.204;16.202;2023-06-22T06:37:50;25.50;99.90
62991;DHT22;49084;48.204;16.202;2023-06-22T06:40:17;25.70;99.90
62991;DHT22;49084;48.204;16.202;2023-06-22T06:42:44;25.70;99.90
62991;DHT22;49084;48.204;16.202;2023-06-22T06:45:23;25.50;99.90
62991;DHT22;49084;48.204;16.202;2023-06-22T06:47:50;25.70;99.90
62991;DHT22;49084;48.204;16.202;2023-06-22T06:50:17;25.90;99.90
62991;DHT22;49084;48.204;16.202;2023-06-22T06:52:43;25.90;99.90
62991;DHT22;49084;48.204;16.202;2023-06-22T06:55:09;25.80;99.90
62991;DHT22;49084;48.204;16.202;2023-06-22T06:57:40;25.80;99.90
62991;DHT22;49084;48.204;16.202;2023-06-22T07:00:07;26.10;99.90
62991;DHT22;49084;48.204;16.202;2023-06-22T07:02:38;26.30;99.90
62991;DHT22;49084;48.204;16.202;2023-06-22T07:05:04;26.60;99.90
62991;DHT22;49084;48.204;16.202;2023-06-22T07:07:30;27.00;99.90
62991;DHT22;49084;48.204;16.202;2023-06-22T07:09:55;27.40;99.90
62991;DHT22;49084;48.204;16.202;2023-06-22T07:12:21;27.60;99.90
62991;DHT22;49084;48.204;16.202;2023-06-22T07:14:47;27.70;99.90
62991;DHT22;49084;48.204;16.202;2023-06-22T07:17:12;27.90;99.90
62991;DHT22;49084;48.204;16.202;2023-06-22T07:19:38;28.30;99.70
62991;DHT22;49084;48.204;16.202;2023-06-22T07:22:04;28.50;98.90
62991;DHT22;49084;48.204;16.202;2023-06-22T07:24:30;28.70;98.80
62991;DHT22;49084;48.204;16.202;2023-06-22T07:26:55;29.00;98.30
62991;DHT22;49084;48.204;16.202;2023-06-22T07:29:23;29.20;97.50
62991;DHT22;49084;48.204;16.202;2023-06-22T07:31:49;29.40;97.10
62991;DHT22;49084;48.204;16.202;2023-06-22T07:34:16;29.70;97.10
62991;DHT22;49084;48.204;16.202;2023-06-22T07:36:43;29.70;96.10
62991;DHT22;49084;48.204;16.202;2023-06-22T07:39:08;29.60;95.20
62991;DHT22;49084;48.204;16.202;2023-06-22T07:41:34;29.80;95.60
62991;DHT22;49084;48.204;16.202;2023-06-22T07:43:59;30.00;95.40
62991;DHT22;49084;48.204;16.202;2023-06-22T07:46:25;29.70;94.40
62991;DHT22;49084;48.204;16.202;2023-06-22T07:48:51;29.40;95.40
62991;DHT22;49084;48.204;16.202;2023-06-22T07:51:17;29.30;95.40
62991;DHT22;49084;48.204;16.202;2023-06-22T07:53:43;28.90;95.90
62991;DHT22;49084;48.204;16.202;2023-06-22T07:56:12;29.10;96.30
62991;DHT22;49084;48.204;16.202;2023-06-22T07:58:38;29.70;95.60
62991;DHT22;49084;48.204;16.202;2023-06-22T08:01:04;30.10;94.80
62991;DHT22;49084;48.204;16.202;2023-06-22T08:03:29;30.50;94.20
62991;DHT22;49084;48.204;16.202;2023-06-22T08:05:55;31.00;93.10
62991;DHT22;49084;48.204;16.202;2023-06-22T08:08:21;31.20;91.80
62991;DHT22;49084;48.204;16.202;2023-06-22T08:10:47;31.00;91.60
62991;DHT22;49084;48.204;16.202;2023-06-22T08:13:12;30.90;92.20
62991;DHT22;49084;48.204;16.202;2023-06-22T08:15:38;31.10;91.60
62991;DHT22;49084;48.204;16.202;2023-06-22T08:18:04;31.30;91.40
62991;DHT22;49084;48.204;16.202;2023-06-22T08:20:30;31.30;91.00
62991;DHT22;49084;48.204;16.202;2023-06-22T08:22:57;31.60;90.60
62991;DHT22;49084;48.204;16.202;2023-06-22T08:25:23;31.90;88.60
62991;DHT22;49084;48.204;16.202;2023-06-22T08:27:49;31.40;86.40
62991;DHT22;49084;48.204;16.202;2023-06-22T08:30:16;31.60;88.00
62991;DHT22;49084;48.204;16.202;2023-06-22T08:32:42;31.70;86.60
62991;DHT22;49084;48.204;16.202;2023-06-22T08:35:08;31.70;86.00
62991;DHT22;49084;48.204;16.202;2023-06-22T08:37:34;31.80;85.70
62991;DHT22;49084;48.204;16.202;2023-06-22T08:40:02;32.10;85.20
62991;DHT22;49084;48.204;16.202;2023-06-22T08:42:30;32.30;83.20
62991;DHT22;49084;48.204;16.202;2023-06-22T08:44:57;32.50;81.50
62991;DHT22;49084;48.204;16.202;2023-06-22T08:47:23;32.40;82.90
62991;DHT22;49084;48.204;16.202;2023-06-22T08:49:48;31.00;91.20
62991;DHT22;49084;48.204;16.202;2023-06-22T08:52:14;32.70;86.80
62991;DHT22;49084;48.204;16.202;2023-06-22T08:54:40;34.60;79.70
62991;DHT22;49084;48.204;16.202;2023-06-22T08:57:06;35.90;74.60
62991;DHT22;49084;48.204;16.202;2023-06-22T08:59:32;36.10;71.40
62991;DHT22;49084;48.204;16.202;2023-06-22T09:01:57;36.40;69.60
62991;DHT22;49084;48.204;16.202;2023-06-22T09:04:24;36.10;69.00
62991;DHT22;49084;48.204;16.202;2023-06-22T09:06:49;36.40;68.40
62991;DHT22;49084;48.204;16.202;2023-06-22T09:09:18;36.90;66.00
62991;DHT22;49084;48.204;16.202;2023-06-22T09:11:44;37.00;63.70
62991;DHT22;49084;48.204;16.202;2023-06-22T09:14:10;36.40;64.10
62991;DHT22;49084;48.204;16.202;2023-06-22T09:16:36;35.80;64.00
62991;DHT22;49084;48.204;16.202;2023-06-22T09:19:02;36.10;64.80
62991;DHT22;49084;48.204;16.202;2023-06-22T09:21:28;36.20;63.00
62991;DHT22;49084;48.204;16.202;2023-06-22T09:23:54;35.90;61.70
62991;DHT22;49084;48.204;16.202;2023-06-22T09:26:20;35.60;63.00
62991;DHT22;49084;48.204;16.202;2023-06-22T09:28:46;36.20;62.90
62991;DHT22;49084;48.204;16.202;2023-06-22T09:31:12;35.90;62.70
62991;DHT22;49084;48.204;16.202;2023-06-22T09:33:39;36.30;62.00
62991;DHT22;49084;48.204;16.202;2023-06-22T09:36:06;37.20;60.90
62991;DHT22;49084;48.204;16.202;2023-06-22T09:38:38;37.40;59.40
62991;DHT22;49084;48.204;16.202;2023-06-22T09:41:04;37.20;59.10
62991;DHT22;49084;48.204;16.202;2023-06-22T09:43:31;37.10;60.00
62991;DHT22;49084;48.204;16.202;2023-06-22T09:45:57;37.60;58.40
62991;DHT22;49084;48.204;16.202;2023-06-22T09:48:23;37.50;57.50
62991;DHT22;49084;48.204;16.202;2023-06-22T09:50:48;37.10;57.70
62991;DHT22;49084;48.204;16.202;2023-06-22T09:53:14;37.60;56.60
62991;DHT22;49084;48.204;16.202;2023-06-22T09:55:40;37.10;56.20
62991;DHT22;49084;48.204;16.202;2023-06-22T09:58:05;37.40;56.80
62991;DHT22;49084;48.204;16.202;2023-06-22T10:00:31;37.60;56.10
62991;DHT22;49084;48.204;16.202;2023-06-22T10:02:57;37.40;56.00
62991;DHT22;49084;48.204;16.202;2023-06-22T10:05:23;37.20;56.40
62991;DHT22;49084;48.204;16.202;2023-06-22T10:07:49;37.50;55.60
62991;DHT22;49084;48.204;16.202;2023-06-22T10:10:14;36.50;57.00
62991;DHT22;49084;48.204;16.202;2023-06-22T10:12:46;36.10;57.70
62991;DHT22;49084;48.204;16.202;2023-06-22T10:15:12;36.60;58.40
62991;DHT22;49084;48.204;16.202;2023-06-22T10:17:38;36.10;57.00
62991;DHT22;49084;48.204;16.202;2023-06-22T10:20:05;35.80;58.80
62991;DHT22;49084;48.204;16.202;2023-06-22T10:22:41;37.30;57.60
62991;DHT22;49084;48.204;16.202;2023-06-22T10:25:07;37.20;57.20
62991;DHT22;49084;48.204;16.202;2023-06-22T10:27:34;36.40;57.10
62991;DHT22;49084;48.204;16.202;2023-06-22T10:29:59;37.10;56.50
62991;DHT22;49084;48.204;16.202;2023-06-22T10:32:25;37.50;55.80
62991;DHT22;49084;48.204;16.202;2023-06-22T10:34:51;37.70;55.70
62991;DHT22;49084;48.204;16.202;2023-06-22T10:37:16;37.00;55.70
62991;DHT22;49084;48.204;16.202;2023-06-22T10:39:42;37.00;56.00
62991;DHT22;49084;48.204;16.202;2023-06-22T10:42:08;36.80;55.10
62991;DHT22;49084;48.204;16.202;2023-06-22T10:44:33;37.40;55.50
62991;DHT22;49084;48.204;16.202;2023-06-22T10:46:59;36.80;55.40
62991;DHT22;49084;48.204;16.202;2023-06-22T10:49:24;37.00;55.00
62991;DHT22;49084;48.204;16.202;2023-06-22T10:51:50;37.20;55.40
62991;DHT22;49084;48.204;16.202;2023-06-22T10:54:16;38.00;55.00
62991;DHT22;49084;48.204;16.202;2023-06-22T10:56:43;38.00;54.10
62991;DHT22;49084;48.204;16.202;2023-06-22T10:59:09;38.40;53.00
62991;DHT22;49084;48.204;16.202;2023-06-22T11:01:35;38.30;52.80
62991;DHT22;49084;48.204;16.202;2023-06-22T11:04:00;38.70;52.90
62991;DHT22;49084;48.204;16.202;2023-06-22T11:06:26;37.90;52.50
62991;DHT22;49084;48.204;16.202;2023-06-22T11:08:52;38.00;52.30
62991;DHT22;49084;48.204;16.202;2023-06-22T11:11:17;37.50;51.60
62991;DHT22;49084;48.204;16.202;2023-06-22T11:13:43;38.40;51.90
62991;DHT22;49084;48.204;16.202;2023-06-22T11:16:10;38.30;51.00
62991;DHT22;49084;48.204;16.202;2023-06-22T11:18:36;37.60;51.90
62991;DHT22;49084;48.204;16.202;2023-06-22T11:21:02;37.50;52.30
62991;DHT22;49084;48.204;16.202;2023-06-22T11:23:27;37.80;51.50
62991;DHT22;49084;48.204;16.202;2023-06-22T11:25:54;38.20;51.90
62991;DHT22;49084;48.204;16.202;2023-06-22T11:28:20;38.70;50.90
62991;DHT22;49084;48.204;16.202;2023-06-22T11:30:45;38.50;51.20
62991;DHT22;49084;48.204;16.202;2023-06-22T11:33:11;37.90;50.80
62991;DHT22;49084;48.204;16.202;2023-06-22T11:35:37;38.40;50.70
62991;DHT22;49084;48.204;16.202;2023-06-22T11:38:03;38.30;51.20
62991;DHT22;49084;48.204;16.202;2023-06-22T11:40:30;38.40;50.70
62991;DHT22;49084;48.204;16.202;2023-06-22T11:42:56;37.90;50.60
62991;DHT22;49084;48.204;16.202;2023-06-22T11:45:21;37.70;50.60
62991;DHT22;49084;48.204;16.202;2023-06-22T11:47:47;36.70;50.90
62991;DHT22;49084;48.204;16.202;2023-06-22T11:50:13;37.70;52.20
62991;DHT22;49084;48.204;16.202;2023-06-22T11:52:39;36.90;52.00
62991;DHT22;49084;48.204;16.202;2023-06-22T11:55:06;37.80;51.30
62991;DHT22;49084;48.204;16.202;2023-06-22T11:57:50;38.30;49.90
62991;DHT22;49084;48.204;16.202;2023-06-22T12:00:17;37.90;50.40
62991;DHT22;49084;48.204;16.202;2023-06-22T12:02:44;37.40;50.80
62991;DHT22;49084;48.204;16.202;2023-06-22T12:05:10;37.40;51.40
62991;DHT22;49084;48.204;16.202;2023-06-22T12:07:36;37.70;51.70
62991;DHT22;49084;48.204;16.202;2023-06-22T12:10:03;37.90;50.40
62991;DHT22;49084;48.204;16.202;2023-06-22T12:12:29;37.70;50.70
62991;DHT22;49084;48.204;16.202;2023-06-22T12:14:54;37.20;50.20
62991;DHT22;49084;48.204;16.202;2023-06-22T12:17:20;38.70;49.70
62991;DHT22;49084;48.204;16.202;2023-06-22T12:19:46;38.30;49.60
62991;DHT22;49084;48.204;16.202;2023-06-22T12:22:11;37.60;50.70
62991;DHT22;49084;48.204;16.202;2023-06-22T12:24:37;36.90;50.00
62991;DHT22;49084;48.204;16.202;2023-06-22T12:27:03;37.10;52.20
62991;DHT22;49084;48.204;16.202;2023-06-22T12:29:29;37.10;52.10
62991;DHT22;49084;48.204;16.202;2023-06-22T12:31:55;37.70;51.00
62991;DHT22;49084;48.204;16.202;2023-06-22T12:34:20;38.40;50.70
62991;DHT22;49084;48.204;16.202;2023-06-22T12:36:46;38.50;50.40
62991;DHT22;49084;48.204;16.202;2023-06-22T12:39:14;38.50;50.50
62991;DHT22;49084;48.204;16.202;2023-06-22T12:41:39;38.00;51.30
62991;DHT22;49084;48.204;16.202;2023-06-22T12:44:05;38.40;50.40
62991;DHT22;49084;48.204;16.202;2023-06-22T12:46:30;38.30;49.70
62991;DHT22;49084;48.204;16.202;2023-06-22T12:49:03;38.00;50.70
62991;DHT22;49084;48.204;16.202;2023-06-22T12:51:29;38.40;50.50
62991;DHT22;49084;48.204;16.202;2023-06-22T12:53:55;39.20;49.60
62991;DHT22;49084;48.204;16.202;2023-06-22T12:56:21;38.30;50.20
62991;DHT22;49084;48.204;16.202;2023-06-22T12:58:47;38.00;49.90
62991;DHT22;49084;48.204;16.202;2023-06-22T13:01:13;37.60;49.90
62991;DHT22;49084;48.204;16.202;2023-06-22T13:03:38;37.20;51.10
62991;DHT22;49084;48.204;16.202;2023-06-22T13:06:04;37.20;50.60
62991;DHT22;49084;48.204;16.202;2023-06-22T13:08:30;38.70;49.60
62991;DHT22;49084;48.204;16.202;2023-06-22T13:10:56;38.40;49.50
62991;DHT22;49084;48.204;16.202;2023-06-22T13:13:25;38.70;48.90
62991;DHT22;49084;48.204;16.202;2023-06-22T13:15:52;38.30;49.40
62991;DHT22;49084;48.204;16.202;2023-06-22T13:18:19;37.20;50.50
62991;DHT22;49084;48.204;16.202;2023-06-22T13:20:45;37.60;50.80
62991;DHT22;49084;48.204;16.202;2023-06-22T13:23:11;37.90;50.40
62991;DHT22;49084;48.204;16.202;2023-06-22T13:25:37;38.40;49.70
62991;DHT22;49084;48.204;16.202;2023-06-22T13:28:03;38.50;49.20
62991;DHT22;49084;48.204;16.202;2023-06-22T13:30:28;39.40;48.50
62991;DHT22;49084;48.204;16.202;2023-06-22T13:32:55;39.40;47.80
62991;DHT22;49084;48.204;16.202;2023-06-22T13:35:21;39.70;47.60
62991;DHT22;49084;48.204;16.202;2023-06-22T13:37:46;39.10;48.60
62991;DHT22;49084;48.204;16.202;2023-06-22T13:40:12;38.80;48.90
62991;DHT22;49084;48.204;16.202;2023-06-22T13:42:38;38.80;48.20
62991;DHT22;49084;48.204;16.202;2023-06-22T13:45:04;37.50;49.90
62991;DHT22;49084;48.204;16.202;2023-06-22T13:47:30;37.10;50.60
62991;DHT22;49084;48.204;16.202;2023-06-22T13:49:56;36.90;52.10
62991;DHT22;49084;48.204;16.202;2023-06-22T13:52:23;37.40;51.20
62991;DHT22;49084;48.204;16.202;2023-06-22T13:54:48;38.10;50.40
62991;DHT22;49084;48.204;16.202;2023-06-22T13:57:14;37.40;50.60
62991;DHT22;49084;48.204;16.202;2023-06-22T13:59:40;38.10;50.00
62991;DHT22;49084;48.204;16.202;2023-06-22T14:02:06;37.30;50.80
62991;DHT22;49084;48.204;16.202;2023-06-22T14:04:32;37.40;51.20
62991;DHT22;49084;48.204;16.202;2023-06-22T14:06:57;36.80;51.70
62991;DHT22;49084;48.204;16.202;2023-06-22T14:09:23;37.20;52.00
62991;DHT22;49084;48.204;16.202;2023-06-22T14:11:49;37.20;51.60
62991;DHT22;49084;48.204;16.202;2023-06-22T14:14:14;37.00;52.50
62991;DHT22;49084;48.204;16.202;2023-06-22T14:16:40;36.90;52.20
62991;DHT22;49084;48.204;16.202;2023-06-22T14:19:06;36.70;53.10
62991;DHT22;49084;48.204;16.202;2023-06-22T14:21:31;37.20;52.80
62991;DHT22;49084;48.204;16.202;2023-06-22T14:23:57;36.60;53.40
62991;DHT22;49084;48.204;16.202;2023-06-22T14:26:22;37.10;53.10
62991;DHT22;49084;48.204;16.202;2023-06-22T14:28:48;37.70;52.00
62991;DHT22;49084;48.204;16.202;2023-06-22T14:31:17;37.60;51.90
62991;DHT22;49084;48.204;16.202;2023-06-22T14:33:47;36.40;53.90
62991;DHT22;49084;48.204;16.202;2023-06-22T14:36:13;36.80;53.60
62991;DHT22;49084;48.204;16.202;2023-06-22T14:38:39;36.30;54.60
62991;DHT22;49084;48.204;16.202;2023-06-22T14:41:05;37.00;53.10
62991;DHT22;49084;48.204;16.202;2023-06-22T14:43:30;36.90;53.70
62991;DHT22;49084;48.204;16.202;2023-06-22T14:45:56;36.40;54.50
62991;DHT22;49084;48.204;16.202;2023-06-22T14:48:22;36.10;54.90
62991;DHT22;49084;48.204;16.202;2023-06-22T14:50:47;36.80;54.50
62991;DHT22;49084;48.204;16.202;2023-06-22T14:53:13;36.60;54.30
62991;DHT22;49084;48.204;16.202;2023-06-22T14:55:40;37.20;53.90
62991;DHT22;49084;48.204;16.202;2023-06-22T14:58:06;37.90;52.50
62991;DHT22;49084;48.204;16.202;2023-06-22T15:00:32;38.30;52.60
62991;DHT22;49084;48.204;16.202;2023-06-22T15:02:57;38.00;52.40
62991;DHT22;49084;48.204;16.202;2023-06-22T15:05:25;37.50;51.80
62991;DHT22;49084;48.204;16.202;2023-06-22T15:07:50;37.80;52.60
62991;DHT22;49084;48.204;16.202;2023-06-22T15:10:16;37.90;52.20
62991;DHT22;49084;48.204;16.202;2023-06-22T15:12:42;36.40;53.70
62991;DHT22;49084;48.204;16.202;2023-06-22T15:15:07;35.00;56.00
62991;DHT22;49084;48.204;16.202;2023-06-22T15:17:33;33.90;61.00
62991;DHT22;49084;48.204;16.202;2023-06-22T15:19:59;36.50;56.50